Time;durP1;ratioP1;P1;durP2;ratioP2;P2;SDS_P1;SDS_P2;PMS_P1;PMS_P2;Temp;Humidity;BMP_temperature;BMP_pressure;BME280_temperature;BME280_humidity;BME280_pressure;Samples;Min_cycle;Max_cycle;Signal;HPM_P1;HPM_P2
2021/11/21 00:00:05;;;;;;;;;;;5.30;99.90;5.90;99712.00;;;;346896;28;84312;-84
2021/11/21 00:00:17;;;;;;;;;;;5.30;99.90;5.80;99703.00;;;;339528;28;91435;-84
2021/11/21 00:00:30;;;;;;;;;;;5.30;99.90;5.80;99712.00;;;;340408;28;83310;-84
2021/11/21 00:00:45;;;;;;;;;;;5.30;99.90;5.90;99711.00;;;;338527;28;88830;-84
2021/11/21 00:00:57;;;;;;;;;;;5.30;99.90;5.90;99707.00;;;;337667;28;83395;-84
2021/11/21 00:01:09;;;;;;;;;;;5.30;99.90;5.90;99715.00;;;;337274;28;91792;-84
2021/11/21 00:01:21;;;;;;;;;;;5.30;99.90;6.00;99705.00;;;;338870;28;83415;-84
2021/11/21 00:01:33;;;;;;;;;;;5.40;99.90;6.00;99714.00;;;;337002;28;93044;-84
2021/11/21 00:01:45;;;;;;;;;;;5.40;99.90;6.00;99714.00;;;;337792;28;83446;-84
2021/11/21 00:01:57;;;;;;;;;;;5.40;99.90;6.10;99710.00;;;;338626;28;90440;-85
2021/11/21 00:02:09;;;;;;;;;;;5.40;99.90;6.10;99708.00;;;;337816;28;82543;-83
2021/11/21 00:02:21;;;;;;;;;;;5.40;99.90;6.00;99704.00;;;;338600;28;91555;-84
2021/11/21 00:02:33;;;;;;;;;;;5.40;99.90;5.80;99716.00;;;;340064;28;82616;-84
2021/11/21 00:02:45;;;;;;;;;;;5.40;99.90;5.80;99707.00;;;;338607;28;91199;-84
2021/11/21 00:02:58;;;;;;;;;;;5.40;99.90;5.80;99715.00;;;;338980;28;82357;-84
2021/11/21 00:03:10;;;;;;;;;;;5.40;99.90;5.80;99711.00;;;;339895;28;91959;-84
2021/11/21 00:03:21;;;;;;;;;;;5.40;99.90;5.90;99715.00;;;;341441;28;83498;-83
2021/11/21 00:03:33;;;;;;;;;;;5.40;99.90;5.90;99706.00;;;;337272;28;91995;-84
2021/11/21 00:03:45;;;;;;;;;;;5.40;99.90;5.90;99708.00;;;;339444;28;83221;-84
2021/11/21 00:03:57;;;;;;;;;;;5.40;99.90;5.90;99708.00;;;;338515;28;91953;-84
2021/11/21 00:04:08;;;;;;;;;;;5.40;99.90;5.80;99709.00;;;;337452;28;82360;-84
2021/11/21 00:04:20;;;;;;;;;;;5.40;99.90;5.70;99701.00;;;;338680;28;89042;-84
2021/11/21 00:04:32;;;;;;;;;;;5.30;99.90;5.70;99705.00;;;;340302;28;83858;-84
2021/11/21 00:04:44;;;;;;;;;;;5.40;99.90;5.80;99707.00;;;;338559;28;90118;-84
2021/11/21 00:04:55;;;;;;;;;;;5.30;99.90;5.90;99708.00;;;;340380;28;83351;-84
2021/11/21 00:05:07;;;;;;;;;;;5.40;99.90;5.90;99705.00;;;;335971;29;88797;-84
2021/11/21 00:05:19;;;;;;;;;;;5.30;99.90;5.80;99710.00;;;;337707;28;82529;-84
2021/11/21 00:05:31;;;;;;;;;;;5.40;99.90;5.90;99709.00;;;;338622;28;89700;-84
2021/11/21 00:05:44;;;;;;;;;;;5.40;99.90;5.80;99709.00;;;;341327;28;83679;-84
2021/11/21 00:05:55;;;;;;;;;;;5.40;99.90;5.90;99713.00;;;;339576;28;92268;-84
2021/11/21 00:06:07;;;;;;;;;;;5.40;99.90;5.90;99703.00;;;;340354;28;83437;-84
2021/11/21 00:06:20;;;;;;;;;;;5.40;99.90;5.90;99710.00;;;;339901;28;91656;-84
2021/11/21 00:06:32;;;;;;;;;;;5.40;99.90;5.80;99702.00;;;;337632;28;83343;-84
2021/11/21 00:06:43;;;;;;;;;;;5.40;99.90;5.90;99710.00;;;;339927;28;89058;-84
2021/11/21 00:06:56;;;;;;;;;;;5.40;99.90;5.90;99705.00;;;;337630;28;83284;-84
2021/11/21 00:07:08;;;;;;;;;;;5.40;99.90;5.90;99703.00;;;;338296;28;92114;-84
2021/11/21 00:07:19;;;;;;;;;;;5.40;99.90;5.80;99699.00;;;;338916;28;84113;-84
2021/11/21 00:07:31;;;;;;;;;;;5.40;99.90;5.80;99703.00;;;;338734;28;89659;-84
2021/11/21 00:07:43;;;;;;;;;;;5.40;99.90;5.70;99715.00;;;;337766;28;83218;-84
2021/11/21 00:07:55;;;;;;;;;;;5.40;99.90;5.70;99705.00;;;;335953;28;89038;-84
2021/11/21 00:08:08;;;;;;;;;;;5.30;99.90;5.70;99703.00;;;;343255;28;82447;-84
2021/11/21 00:08:19;;;;;;;;;;;5.30;99.90;5.70;99700.00;;;;337247;28;90747;-84
2021/11/21 00:08:31;;;;;;;;;;;5.30;99.90;5.60;99701.00;;;;338941;28;83229;-84
2021/11/21 00:08:43;;;;;;;;;;;5.30;99.90;5.70;99704.00;;;;342939;28;91495;-84
2021/11/21 00:08:55;;;;;;;;;;;5.30;99.90;5.70;99697.00;;;;344620;28;83900;-84
2021/11/21 00:09:07;;;;;;;;;;;5.30;99.90;5.80;99701.00;;;;341163;27;90605;-84
2021/11/21 00:09:18;;;;;;;;;;;5.30;99.90;5.90;99699.00;;;;340239;28;84010;-84
2021/11/21 00:09:30;;;;;;;;;;;5.30;99.90;5.90;99698.00;;;;339818;28;93055;-84
2021/11/21 00:09:42;;;;;;;;;;;5.30;99.90;5.90;99696.00;;;;341783;28;83413;-84
2021/11/21 00:09:54;;;;;;;;;;;5.30;99.90;5.90;99699.00;;;;338564;28;90573;-84
2021/11/21 00:10:06;;;;;;;;;;;5.30;99.90;5.90;99704.00;;;;340160;28;82309;-84
2021/11/21 00:10:18;;;;;;;;;;;5.30;99.90;5.90;99700.00;;;;336936;28;91483;-84
2021/11/21 00:10:33;;;;;;;;;;;5.30;99.90;5.90;99700.00;;;;341680;28;83272;-84
2021/11/21 00:10:45;;;;;;;;;;;5.30;99.90;5.90;99708.00;;;;339879;28;90378;-84
2021/11/21 00:10:57;;;;;;;;;;;5.40;99.90;5.90;99704.00;;;;339091;28;82369;-84
2021/11/21 00:11:09;;;;;;;;;;;5.40;99.90;5.90;99697.00;;;;341397;28;88804;-84
2021/11/21 00:11:21;;;;;;;;;;;5.40;99.90;5.90;99699.00;;;;347296;28;83429;-84
2021/11/21 00:11:33;;;;;;;;;;;5.40;99.90;5.90;99697.00;;;;339955;28;88587;-84
2021/11/21 00:11:44;;;;;;;;;;;5.40;99.90;5.90;99694.00;;;;341759;28;82600;-84
2021/11/21 00:11:57;;;;;;;;;;;5.40;99.90;5.90;99706.00;;;;342296;28;91104;-84
2021/11/21 00:12:09;;;;;;;;;;;5.40;99.90;5.90;99705.00;;;;344535;28;83473;-84
2021/11/21 00:12:21;;;;;;;;;;;5.40;99.90;5.80;99694.00;;;;338301;28;89079;-84
2021/11/21 00:12:33;;;;;;;;;;;5.40;99.90;5.80;99700.00;;;;337815;28;83290;-84
2021/11/21 00:12:44;;;;;;;;;;;5.40;99.90;5.70;99701.00;;;;338636;28;91334;-84
2021/11/21 00:12:56;;;;;;;;;;;5.40;99.90;5.70;99704.00;;;;338977;28;83402;-84
2021/11/21 00:13:08;;;;;;;;;;;5.30;99.90;5.70;99702.00;;;;337160;28;92054;-84
2021/11/21 00:13:20;;;;;;;;;;;5.30;99.90;5.70;99697.00;;;;336424;28;83290;-84
2021/11/21 00:13:32;;;;;;;;;;;5.30;99.90;5.70;99697.00;;;;337200;28;91585;-84
2021/11/21 00:13:43;;;;;;;;;;;5.30;99.90;5.70;99699.00;;;;338942;28;83495;-84
2021/11/21 00:13:55;;;;;;;;;;;5.30;99.90;5.70;99696.00;;;;338586;28;88776;-84
2021/11/21 00:14:07;;;;;;;;;;;5.40;99.90;5.80;99700.00;;;;337642;28;82407;-84
2021/11/21 00:14:19;;;;;;;;;;;5.30;99.90;5.90;99706.00;;;;337230;28;91425;-84
2021/11/21 00:14:30;;;;;;;;;;;5.30;99.90;6.00;99706.00;;;;338967;28;83492;-84
2021/11/21 00:14:44;;;;;;;;;;;5.40;99.90;6.00;99697.00;;;;339906;28;89137;-84
2021/11/21 00:14:55;;;;;;;;;;;5.40;99.90;6.00;99699.00;;;;341119;28;83535;-84
2021/11/21 00:15:08;;;;;;;;;;;5.40;99.90;6.00;99697.00;;;;346877;28;91320;-84
2021/11/21 00:15:19;;;;;;;;;;;5.40;99.90;6.10;99685.00;;;;339200;28;82848;-84
2021/11/21 00:15:32;;;;;;;;;;;5.40;99.90;6.10;99695.00;;;;335916;29;91240;-84
2021/11/21 00:15:44;;;;;;;;;;;5.40;99.90;6.00;99700.00;;;;339204;28;83265;-84
2021/11/21 00:15:56;;;;;;;;;;;5.40;99.90;6.00;99694.00;;;;338438;28;90225;-84
2021/11/21 00:16:08;;;;;;;;;;;5.40;99.90;6.00;99698.00;;;;338891;28;82745;-84
2021/11/21 00:16:19;;;;;;;;;;;5.40;99.90;6.00;99700.00;;;;337154;28;91650;-84
2021/11/21 00:16:31;;;;;;;;;;;5.40;99.90;6.00;99694.00;;;;337471;28;83452;-85
2021/11/21 00:16:43;;;;;;;;;;;5.40;99.90;6.00;99693.00;;;;338644;28;88749;-84
2021/11/21 00:16:57;;;;;;;;;;;5.40;99.90;6.00;99697.00;;;;341767;28;83263;-84
2021/11/21 00:17:09;;;;;;;;;;;5.40;99.90;6.00;99691.00;;;;337333;28;91804;-84
2021/11/21 00:17:22;;;;;;;;;;;5.40;99.90;6.00;99689.00;;;;341627;28;82518;-84
2021/11/21 00:17:34;;;;;;;;;;;5.50;99.90;6.10;99690.00;;;;339693;28;93221;-84
2021/11/21 00:17:46;;;;;;;;;;;5.50;99.90;6.10;99689.00;;;;345515;28;83405;-84
2021/11/21 00:17:58;;;;;;;;;;;5.50;99.90;6.00;99692.00;;;;345121;28;92063;-84
2021/11/21 00:18:10;;;;;;;;;;;5.50;99.90;6.10;99690.00;;;;340221;28;82463;-84
2021/11/21 00:18:22;;;;;;;;;;;5.50;99.90;6.00;99692.00;;;;339774;28;91273;-84
2021/11/21 00:18:33;;;;;;;;;;;5.50;99.90;6.00;99700.00;;;;337603;28;82383;-84
2021/11/21 00:18:45;;;;;;;;;;;5.50;99.90;6.00;99691.00;;;;337617;28;91699;-83
2021/11/21 00:18:57;;;;;;;;;;;5.50;99.90;6.10;99690.00;;;;337645;28;82405;-84
2021/11/21 00:19:09;;;;;;;;;;;5.50;99.90;6.10;99682.00;;;;338536;28;91245;-84
2021/11/21 00:19:20;;;;;;;;;;;5.50;99.90;6.10;99690.00;;;;337526;28;83572;-84
2021/11/21 00:19:32;;;;;;;;;;;5.50;99.90;6.10;99696.00;;;;338545;28;89827;-84
2021/11/21 00:19:44;;;;;;;;;;;5.50;99.90;6.20;99687.00;;;;339026;28;83345;-84
2021/11/21 00:19:56;;;;;;;;;;;5.50;99.90;6.10;99691.00;;;;338515;28;90718;-84
2021/11/21 00:20:16;;;;;;;;;;;5.50;99.90;6.10;99697.00;;;;337718;28;83369;-84
2021/11/21 00:20:28;;;;;;;;;;;5.50;99.90;6.10;99695.00;;;;337221;28;90413;-85
2021/11/21 00:20:40;;;;;;;;;;;5.50;99.90;6.10;99693.00;;;;337393;28;83370;-84
2021/11/21 00:20:52;;;;;;;;;;;5.50;99.90;6.10;99695.00;;;;343415;28;90469;-84
2021/11/21 00:21:04;;;;;;;;;;;5.50;99.90;6.10;99701.00;;;;339815;28;83806;-85
2021/11/21 00:21:16;;;;;;;;;;;5.50;99.90;6.00;99692.00;;;;340469;28;90122;-84
2021/11/21 00:21:28;;;;;;;;;;;5.50;99.90;6.10;99690.00;;;;339008;28;82563;-84
2021/11/21 00:21:40;;;;;;;;;;;5.60;99.90;6.10;99689.00;;;;338503;28;92777;-85
2021/11/21 00:21:52;;;;;;;;;;;5.50;99.90;6.10;99693.00;;;;338858;28;83533;-84
2021/11/21 00:22:04;;;;;;;;;;;5.60;99.90;6.10;99689.00;;;;339846;28;89580;-84
2021/11/21 00:22:16;;;;;;;;;;;5.60;99.90;6.20;99697.00;;;;338978;28;83420;-84
2021/11/21 00:22:29;;;;;;;;;;;5.60;99.90;6.20;99693.00;;;;338633;28;90586;-84
2021/11/21 00:22:40;;;;;;;;;;;5.60;99.90;6.30;99691.00;;;;337623;28;82437;-84
2021/11/21 00:22:52;;;;;;;;;;;5.60;99.90;6.40;99682.00;;;;337278;28;92054;-84
2021/11/21 00:23:05;;;;;;;;;;;5.60;99.90;6.30;99688.00;;;;338092;28;83384;-84
2021/11/21 00:23:19;;;;;;;;;;;5.60;99.90;6.30;99692.00;;;;346808;28;90974;-84
2021/11/21 00:23:31;;;;;;;;;;;5.60;99.90;6.30;99686.00;;;;344552;28;83384;-84
2021/11/21 00:23:43;;;;;;;;;;;5.60;99.90;6.30;99694.00;;;;346964;27;94019;-84
2021/11/21 00:23:54;;;;;;;;;;;5.70;99.90;6.20;99691.00;;;;348314;27;83405;-84
2021/11/21 00:24:06;;;;;;;;;;;5.70;99.90;6.20;99688.00;;;;346913;28;90923;-84
2021/11/21 00:24:18;;;;;;;;;;;5.60;99.90;6.20;99693.00;;;;346092;28;83479;-84
2021/11/21 00:24:30;;;;;;;;;;;5.60;99.90;6.20;99689.00;;;;345598;28;92240;-84
2021/11/21 00:24:42;;;;;;;;;;;5.70;99.90;6.20;99692.00;;;;345857;28;83506;-84
2021/11/21 00:24:54;;;;;;;;;;;5.60;99.90;6.20;99693.00;;;;346940;28;91649;-84
2021/11/21 00:25:06;;;;;;;;;;;5.70;99.90;6.20;99691.00;;;;347378;28;83439;-84
2021/11/21 00:25:17;;;;;;;;;;;5.70;99.90;6.20;99686.00;;;;344080;28;90231;-84
2021/11/21 00:25:30;;;;;;;;;;;5.70;99.90;6.20;99687.00;;;;344501;28;83481;-84
2021/11/21 00:25:41;;;;;;;;;;;5.70;99.90;6.20;99692.00;;;;345519;28;92226;-84
2021/11/21 00:25:53;;;;;;;;;;;5.70;99.90;6.20;99687.00;;;;346017;28;82494;-84
2021/11/21 00:26:05;;;;;;;;;;;5.60;99.90;6.20;99691.00;;;;345540;28;89487;-84
2021/11/21 00:26:16;;;;;;;;;;;5.60;99.90;6.20;99691.00;;;;346007;28;83226;-84
2021/11/21 00:26:28;;;;;;;;;;;5.70;99.90;6.20;99695.00;;;;345511;28;92327;-84
2021/11/21 00:26:40;;;;;;;;;;;5.60;99.90;6.20;99686.00;;;;345782;28;83529;-83
2021/11/21 00:26:52;;;;;;;;;;;5.70;99.90;6.30;99683.00;;;;346520;28;91148;-84
2021/11/21 00:27:04;;;;;;;;;;;5.70;99.90;6.20;99680.00;;;;347041;28;83611;-84
2021/11/21 00:27:16;;;;;;;;;;;5.70;99.90;6.20;99684.00;;;;345366;28;89254;-84
2021/11/21 00:27:28;;;;;;;;;;;5.70;99.90;6.20;99680.00;;;;346027;28;83429;-84
2021/11/21 00:27:39;;;;;;;;;;;5.70;99.90;6.20;99680.00;;;;345262;28;91715;-84
2021/11/21 00:27:51;;;;;;;;;;;5.70;99.90;6.30;99688.00;;;;347358;28;82396;-84
2021/11/21 00:28:03;;;;;;;;;;;5.70;99.90;6.30;99689.00;;;;346777;28;92071;-84
2021/11/21 00:28:15;;;;;;;;;;;5.70;99.90;6.30;99688.00;;;;347302;28;83285;-84
2021/11/21 00:28:26;;;;;;;;;;;5.70;99.90;6.30;99687.00;;;;348336;27;90130;-85
2021/11/21 00:28:38;;;;;;;;;;;5.70;99.90;6.20;99683.00;;;;347209;28;83561;-84
2021/11/21 00:28:50;;;;;;;;;;;5.70;99.90;6.30;99686.00;;;;345563;28;87753;-84
2021/11/21 00:29:02;;;;;;;;;;;5.70;99.90;6.40;99682.00;;;;348421;27;83478;-84
2021/11/21 00:29:14;;;;;;;;;;;5.80;99.90;6.40;99673.00;;;;346849;28;89010;-84
2021/11/21 00:29:25;;;;;;;;;;;5.80;99.90;6.30;99686.00;;;;347168;28;83471;-84
2021/11/21 00:29:37;;;;;;;;;;;5.80;99.90;6.30;99677.00;;;;348185;27;92777;-84
2021/11/21 00:29:53;;;;;;;;;;;5.80;99.90;6.30;99679.00;;;;344834;28;83598;-84
2021/11/21 00:30:05;;;;;;;;;;;5.80;99.90;6.30;99675.00;;;;345325;28;91396;-85
2021/11/21 00:30:17;;;;;;;;;;;5.80;99.90;6.30;99675.00;;;;347054;28;83455;-84
2021/11/21 00:30:28;;;;;;;;;;;5.80;99.90;6.30;99673.00;;;;345454;28;92102;-84
2021/11/21 00:30:41;;;;;;;;;;;5.80;99.90;6.30;99677.00;;;;345858;28;83297;-83
2021/11/21 00:30:53;;;;;;;;;;;5.80;99.90;6.30;99681.00;;;;344247;28;90172;-84
2021/11/21 00:31:05;;;;;;;;;;;5.80;99.90;6.30;99681.00;;;;348689;27;83452;-85
2021/11/21 00:31:17;;;;;;;;;;;5.70;99.90;6.20;99677.00;;;;346186;28;89313;-84
2021/11/21 00:31:28;;;;;;;;;;;5.80;99.90;6.20;99676.00;;;;347232;28;83383;-84
2021/11/21 00:31:40;;;;;;;;;;;5.80;99.90;6.20;99680.00;;;;345484;28;92782;-84
2021/11/21 00:31:52;;;;;;;;;;;5.80;99.90;6.20;99670.00;;;;348649;27;82602;-84
2021/11/21 00:32:04;;;;;;;;;;;5.80;99.90;6.20;99675.00;;;;344128;28;92336;-84
2021/11/21 00:32:17;;;;;;;;;;;5.80;99.90;6.30;99669.00;;;;345921;28;83448;-84
2021/11/21 00:32:29;;;;;;;;;;;5.80;99.90;6.20;99673.00;;;;348179;27;87391;-84
2021/11/21 00:32:41;;;;;;;;;;;5.80;99.90;6.30;99668.00;;;;346729;28;83457;-85
2021/11/21 00:32:53;;;;;;;;;;;5.80;99.90;6.30;99671.00;;;;345501;28;89617;-84
2021/11/21 00:33:05;;;;;;;;;;;5.80;99.90;6.40;99662.00;;;;345970;28;83799;-84
2021/11/21 00:33:16;;;;;;;;;;;5.80;99.90;6.30;99671.00;;;;345453;28;90902;-84
2021/11/21 00:33:29;;;;;;;;;;;5.80;99.90;6.30;99677.00;;;;347412;28;83491;-83
2021/11/21 00:33:41;;;;;;;;;;;5.80;99.90;6.30;99660.00;;;;344184;28;89608;-85
2021/11/21 00:33:53;;;;;;;;;;;5.80;99.90;6.30;99673.00;;;;345868;28;83151;-84
2021/11/21 00:34:05;;;;;;;;;;;5.80;99.90;6.40;99660.00;;;;345497;28;89030;-84
2021/11/21 00:34:16;;;;;;;;;;;5.80;99.90;6.30;99667.00;;;;345972;28;83363;-84
2021/11/21 00:34:28;;;;;;;;;;;5.80;99.90;6.20;99675.00;;;;348299;27;91414;-85
2021/11/21 00:34:41;;;;;;;;;;;5.80;99.90;6.20;99676.00;;;;348718;27;83300;-83
2021/11/21 00:34:53;;;;;;;;;;;5.80;99.90;6.20;99674.00;;;;346925;28;91509;-84
2021/11/21 00:35:05;;;;;;;;;;;5.80;99.90;6.20;99671.00;;;;345996;28;83216;-84
2021/11/21 00:35:17;;;;;;;;;;;5.80;99.90;6.20;99670.00;;;;348256;27;90304;-84
2021/11/21 00:35:28;;;;;;;;;;;5.80;99.90;6.20;99676.00;;;;344701;28;82341;-84
2021/11/21 00:35:40;;;;;;;;;;;5.80;99.90;6.20;99676.00;;;;345468;28;93149;-84
2021/11/21 00:35:52;;;;;;;;;;;5.80;99.90;6.20;99665.00;;;;349829;27;83534;-84
2021/11/21 00:36:04;;;;;;;;;;;5.80;99.90;6.20;99674.00;;;;346877;28;89168;-84
2021/11/21 00:36:16;;;;;;;;;;;5.80;99.90;6.20;99676.00;;;;345767;28;82461;-84
2021/11/21 00:36:27;;;;;;;;;;;5.80;99.90;6.20;99674.00;;;;345596;28;91414;-85
2021/11/21 00:36:39;;;;;;;;;;;5.80;99.90;6.30;99668.00;;;;345947;28;83417;-85
2021/11/21 00:36:51;;;;;;;;;;;5.80;99.90;6.20;99673.00;;;;347038;28;90234;-84
2021/11/21 00:37:03;;;;;;;;;;;5.80;99.90;6.20;99667.00;;;;348781;27;83378;-84
2021/11/21 00:37:15;;;;;;;;;;;5.80;99.90;6.20;99671.00;;;;346959;28;91066;-84
2021/11/21 00:37:28;;;;;;;;;;;5.80;99.90;6.20;99676.00;;;;348751;27;82302;-84
2021/11/21 00:37:40;;;;;;;;;;;5.80;99.90;6.10;99671.00;;;;346832;28;92705;-85
2021/11/21 00:37:52;;;;;;;;;;;5.80;99.90;6.10;99673.00;;;;346019;28;82309;-84
2021/11/21 00:38:04;;;;;;;;;;;5.80;99.90;6.20;99665.00;;;;346897;28;91733;-84
2021/11/21 00:38:15;;;;;;;;;;;5.80;99.90;6.30;99679.00;;;;348809;27;83296;-84
2021/11/21 00:38:27;;;;;;;;;;;5.80;99.90;6.40;99665.00;;;;349630;27;91213;-84
2021/11/21 00:38:41;;;;;;;;;;;5.80;99.90;6.30;99670.00;;;;347282;28;82634;-84
2021/11/21 00:38:53;;;;;;;;;;;5.80;99.90;6.40;99662.00;;;;344163;28;90683;-83
2021/11/21 00:39:05;;;;;;;;;;;5.80;99.90;6.40;99662.00;;;;347350;28;83291;-84
2021/11/21 00:39:17;;;;;;;;;;;5.80;99.90;6.30;99661.00;;;;347975;27;91383;-85
2021/11/21 00:39:28;;;;;;;;;;;5.80;99.90;6.30;99660.00;;;;345916;28;83887;-84
2021/11/21 00:39:40;;;;;;;;;;;5.80;99.90;6.30;99664.00;;;;346860;28;93187;-85
2021/11/21 00:39:52;;;;;;;;;;;5.80;99.90;6.30;99661.00;;;;345966;28;83298;-85
2021/11/21 00:40:04;;;;;;;;;;;5.80;99.90;6.30;99663.00;;;;346947;28;88760;-84
2021/11/21 00:40:16;;;;;;;;;;;5.80;99.90;6.30;99657.00;;;;347384;28;83297;-84
2021/11/21 00:40:28;;;;;;;;;;;5.80;99.90;6.40;99652.00;;;;346885;28;91290;-84
2021/11/21 00:40:40;;;;;;;;;;;5.80;99.90;6.40;99665.00;;;;345855;28;83511;-85
2021/11/21 00:40:52;;;;;;;;;;;5.80;99.90;6.40;99664.00;;;;345552;28;91432;-85
2021/11/21 00:41:04;;;;;;;;;;;5.80;99.90;6.30;99659.00;;;;348780;27;83180;-85
2021/11/21 00:41:16;;;;;;;;;;;5.80;99.90;6.30;99663.00;;;;345492;28;91406;-84
2021/11/21 00:41:27;;;;;;;;;;;5.80;99.90;6.30;99668.00;;;;344510;28;83443;-83
2021/11/21 00:41:39;;;;;;;;;;;5.80;99.90;6.30;99665.00;;;;347847;27;91516;-84
2021/11/21 00:41:52;;;;;;;;;;;5.90;99.90;6.30;99668.00;;;;346359;28;83292;-85
2021/11/21 00:42:04;;;;;;;;;;;5.90;99.90;6.30;99670.00;;;;345554;28;90080;-85
2021/11/21 00:42:16;;;;;;;;;;;5.80;99.90;6.40;99660.00;;;;344475;28;83523;-85
2021/11/21 00:42:28;;;;;;;;;;;5.80;99.90;6.50;99660.00;;;;345533;28;92211;-85
2021/11/21 00:42:40;;;;;;;;;;;5.80;99.90;6.50;99657.00;;;;345916;28;83396;-84
2021/11/21 00:42:57;;;;;;;;;;;5.90;99.90;6.50;99663.00;;;;344278;28;91843;-86
2021/11/21 00:43:09;;;;;;;;;;;5.90;99.90;6.50;99665.00;;;;343241;28;83425;-85
2021/11/21 00:43:21;;;;;;;;;;;5.90;99.90;6.40;99658.00;;;;345547;28;91251;-84
2021/11/21 00:43:33;;;;;;;;;;;5.90;99.90;6.40;99663.00;;;;344568;28;83235;-84
2021/11/21 00:43:45;;;;;;;;;;;5.90;99.90;6.50;99658.00;;;;345527;28;91264;-84
2021/11/21 00:43:57;;;;;;;;;;;5.90;99.90;6.60;99659.00;;;;347379;28;82746;-84
2021/11/21 00:44:09;;;;;;;;;;;5.90;99.90;6.50;99659.00;;;;345613;28;89024;-84
2021/11/21 00:44:22;;;;;;;;;;;5.90;99.90;6.40;99661.00;;;;344506;28;83401;-85
2021/11/21 00:44:33;;;;;;;;;;;5.90;99.90;6.40;99657.00;;;;345427;28;91489;-84
2021/11/21 00:44:45;;;;;;;;;;;6.00;99.90;6.50;99653.00;;;;344363;28;83505;-84
2021/11/21 00:44:57;;;;;;;;;;;5.90;99.90;6.50;99659.00;;;;344268;28;88980;-84
2021/11/21 00:45:09;;;;;;;;;;;5.90;99.90;6.50;99658.00;;;;345964;28;83195;-85
2021/11/21 00:45:21;;;;;;;;;;;5.90;99.90;6.40;99656.00;;;;344150;28;91247;-85
2021/11/21 00:45:33;;;;;;;;;;;6.00;99.90;6.40;99659.00;;;;345840;28;83459;-84
2021/11/21 00:45:44;;;;;;;;;;;5.90;99.90;6.40;99666.00;;;;343983;28;93033;-85
2021/11/21 00:45:56;;;;;;;;;;;5.90;99.90;6.50;99658.00;;;;345953;28;82356;-84
2021/11/21 00:46:08;;;;;;;;;;;6.00;99.90;6.40;99658.00;;;;346889;28;91777;-84
2021/11/21 00:46:20;;;;;;;;;;;6.00;99.90;6.40;99656.00;;;;344660;28;83370;-84
2021/11/21 00:46:32;;;;;;;;;;;5.90;99.90;6.30;99655.00;;;;348010;27;92478;-84
2021/11/21 00:46:43;;;;;;;;;;;5.90;99.90;6.30;99656.00;;;;347259;28;83356;-84
2021/11/21 00:46:55;;;;;;;;;;;5.90;99.90;6.30;99658.00;;;;345362;28;91946;-85
2021/11/21 00:47:07;;;;;;;;;;;5.90;99.90;6.20;99661.00;;;;348786;27;83277;-84
2021/11/21 00:47:19;;;;;;;;;;;5.90;99.90;6.30;99662.00;;;;348240;27;91337;-85
2021/11/21 00:47:31;;;;;;;;;;;5.90;99.90;6.30;99658.00;;;;345976;28;83394;-84
2021/11/21 00:47:42;;;;;;;;;;;5.90;99.90;6.30;99658.00;;;;345294;28;92644;-84
2021/11/21 00:47:55;;;;;;;;;;;5.90;99.90;6.30;99654.00;;;;345817;28;83275;-84
2021/11/21 00:48:06;;;;;;;;;;;5.90;99.90;6.30;99651.00;;;;347141;28;90723;-84
2021/11/21 00:48:21;;;;;;;;;;;5.90;99.90;6.30;99651.00;;;;347676;28;82422;-84
2021/11/21 00:48:36;;;;;;;;;;;5.90;99.90;6.30;99652.00;;;;347078;28;90581;-84
2021/11/21 00:48:48;;;;;;;;;;;5.90;99.90;6.30;99651.00;;;;349031;27;83519;-84
2021/11/21 00:49:02;;;;;;;;;;;5.90;99.90;6.30;99660.00;;;;347285;28;89038;-84
2021/11/21 00:49:16;;;;;;;;;;;5.90;99.90;6.30;99649.00;;;;347521;28;83289;-84
2021/11/21 00:49:28;;;;;;;;;;;5.90;99.90;6.30;99655.00;;;;345873;28;88712;-84
2021/11/21 00:49:41;;;;;;;;;;;5.90;99.90;6.30;99651.00;;;;344838;28;82611;-85
2021/11/21 00:49:52;;;;;;;;;;;5.90;99.90;6.30;99648.00;;;;345714;28;88911;-85
2021/11/21 00:50:05;;;;;;;;;;;5.90;99.90;6.30;99649.00;;;;347561;27;82584;-84
2021/11/21 00:50:23;;;;;;;;;;;5.90;99.90;6.30;99646.00;;;;347130;28;91371;-84
2021/11/21 00:50:35;;;;;;;;;;;5.90;99.90;6.30;99648.00;;;;346073;28;83310;-85
2021/11/21 00:50:48;;;;;;;;;;;5.90;99.90;6.30;99647.00;;;;347042;28;91053;-84
2021/11/21 00:51:02;;;;;;;;;;;5.90;99.90;6.30;99656.00;;;;349005;27;83350;-83
2021/11/21 00:51:15;;;;;;;;;;;5.90;99.90;6.30;99650.00;;;;348559;27;91559;-84
2021/11/21 00:51:26;;;;;;;;;;;5.90;99.90;6.40;99654.00;;;;347391;28;83324;-84
2021/11/21 00:51:38;;;;;;;;;;;5.90;99.90;6.40;99648.00;;;;347086;28;91219;-84
2021/11/21 00:51:50;;;;;;;;;;;5.90;99.90;6.40;99643.00;;;;347566;28;83396;-85
2021/11/21 00:52:03;;;;;;;;;;;5.90;99.90;6.40;99644.00;;;;345731;28;90059;-84
2021/11/21 00:52:15;;;;;;;;;;;5.90;99.90;6.40;99649.00;;;;346318;28;82449;-84
2021/11/21 00:52:27;;;;;;;;;;;5.90;99.90;6.30;99640.00;;;;345817;28;92128;-84
2021/11/21 00:52:39;;;;;;;;;;;5.90;99.90;6.40;99646.00;;;;346183;28;83486;-84
2021/11/21 00:52:58;;;;;;;;;;;5.90;99.90;6.30;99647.00;;;;347129;28;89850;-85
2021/11/21 00:53:10;;;;;;;;;;;5.90;99.90;6.30;99651.00;;;;346202;28;83364;-84
2021/11/21 00:53:22;;;;;;;;;;;5.90;99.90;6.30;99647.00;;;;344560;28;88705;-83
2021/11/21 00:53:36;;;;;;;;;;;5.90;99.90;6.30;99653.00;;;;346223;28;83120;-84
2021/11/21 00:53:52;;;;;;;;;;;5.90;99.90;6.30;99649.00;;;;347222;28;89580;-84
2021/11/21 00:54:09;;;;;;;;;;;5.90;99.90;6.30;99646.00;;;;347534;27;83327;-84
2021/11/21 00:54:39;;;;;;;;;;;5.90;99.90;6.30;99631.00;;;;347033;28;93254;-84
2021/11/21 00:55:04;;;;;;;;;;;5.90;99.90;6.40;99649.00;;;;347548;28;82315;-83
2021/11/21 00:55:20;;;;;;;;;;;5.90;99.90;6.30;99648.00;;;;348483;27;92342;-84
2021/11/21 00:55:35;;;;;;;;;;;5.90;99.90;6.30;99640.00;;;;346214;28;82225;-83
2021/11/21 00:55:55;;;;;;;;;;;5.90;99.90;6.30;99635.00;;;;347201;28;90598;-84
2021/11/21 00:56:09;;;;;;;;;;;5.90;99.90;6.30;99638.00;;;;347603;27;83379;-84
2021/11/21 00:56:21;;;;;;;;;;;5.90;99.90;6.20;99647.00;;;;344435;28;91282;-84
2021/11/21 00:56:32;;;;;;;;;;;5.90;99.90;6.20;99648.00;;;;347482;28;83162;-84
2021/11/21 00:56:44;;;;;;;;;;;5.90;99.90;6.20;99652.00;;;;347476;27;92279;-83
2021/11/21 00:56:56;;;;;;;;;;;5.90;99.90;6.20;99648.00;;;;346078;28;83361;-84
2021/11/21 00:57:08;;;;;;;;;;;5.90;99.90;6.20;99646.00;;;;344419;28;89743;-84
2021/11/21 00:57:19;;;;;;;;;;;5.90;99.90;6.20;99645.00;;;;345945;28;83494;-84
2021/11/21 00:57:31;;;;;;;;;;;5.90;99.90;6.20;99655.00;;;;347173;28;90514;-84
2021/11/21 00:57:43;;;;;;;;;;;5.90;99.90;6.20;99643.00;;;;347538;28;83684;-84
2021/11/21 00:57:55;;;;;;;;;;;5.90;99.90;6.20;99642.00;;;;345466;28;90331;-84
2021/11/21 00:58:09;;;;;;;;;;;5.90;99.90;6.20;99645.00;;;;347626;28;82401;-84
2021/11/21 00:58:21;;;;;;;;;;;5.80;99.90;6.20;99647.00;;;;347259;28;89081;-84
2021/11/21 00:58:33;;;;;;;;;;;5.90;99.90;6.20;99638.00;;;;346282;28;82293;-84
2021/11/21 00:58:45;;;;;;;;;;;5.80;99.90;6.20;99640.00;;;;345880;28;88197;-84
2021/11/21 00:58:57;;;;;;;;;;;5.80;99.90;6.20;99649.00;;;;348886;27;83317;-84
2021/11/21 00:59:09;;;;;;;;;;;5.80;99.90;6.20;99643.00;;;;345760;28;91454;-84
2021/11/21 00:59:21;;;;;;;;;;;5.80;99.90;6.20;99653.00;;;;344923;28;82417;-84
2021/11/21 00:59:33;;;;;;;;;;;5.80;99.90;6.20;99644.00;;;;345785;28;90274;-83
2021/11/21 00:59:44;;;;;;;;;;;5.80;99.90;6.20;99643.00;;;;347634;28;83451;-84
2021/11/21 00:59:56;;;;;;;;;;;5.80;99.90;6.30;99647.00;;;;346722;28;92283;-83
2021/11/21 01:00:10;;;;;;;;;;;5.80;99.90;6.20;99643.00;;;;346232;28;83326;-83
2021/11/21 01:00:21;;;;;;;;;;;5.80;99.90;6.30;99643.00;;;;347258;28;89381;-84
2021/11/21 01:00:33;;;;;;;;;;;5.80;99.90;6.30;99638.00;;;;344806;28;83266;-84
2021/11/21 01:00:47;;;;;;;;;;;5.80;99.90;6.20;99648.00;;;;347127;28;90248;-84
2021/11/21 01:01:00;;;;;;;;;;;5.80;99.90;6.20;99636.00;;;;346119;28;83440;-84
2021/11/21 01:01:12;;;;;;;;;;;5.80;99.90;6.30;99644.00;;;;345526;28;92411;-84
2021/11/21 01:01:24;;;;;;;;;;;5.80;99.90;6.30;99642.00;;;;347287;28;83419;-84
2021/11/21 01:01:36;;;;;;;;;;;5.80;99.90;6.30;99646.00;;;;348374;27;90245;-84
2021/11/21 01:01:48;;;;;;;;;;;5.90;99.90;6.30;99642.00;;;;347600;28;83087;-83
2021/11/21 01:02:06;;;;;;;;;;;5.80;99.90;6.30;99644.00;;;;345597;28;91582;-84
2021/11/21 01:02:20;;;;;;;;;;;5.80;99.90;6.30;99637.00;;;;348962;27;83366;-84
2021/11/21 01:02:32;;;;;;;;;;;5.80;99.90;6.30;99633.00;;;;348500;27;92100;-84
2021/11/21 01:02:45;;;;;;;;;;;5.80;99.90;6.40;99641.00;;;;346757;28;82624;-84